createdAt,value
2023-01-13T00:00:52.322Z,77.70
2023-01-13T00:03:37.313Z,77.77
2023-01-13T00:06:22.577Z,77.89
2023-01-13T00:09:05.578Z,77.83
2023-01-13T00:11:53.297Z,78.01
2023-01-13T00:14:37.134Z,78.03
2023-01-13T00:17:18.438Z,78.20
2023-01-13T00:20:00.294Z,78.29
2023-01-13T00:22:42.302Z,78.40
2023-01-13T00:25:23.125Z,78.49
2023-01-13T00:28:04.260Z,78.61
2023-01-13T00:30:45.111Z,78.68
2023-01-13T00:33:26.256Z,78.79
2023-01-13T00:36:08.115Z,78.94
2023-01-13T00:38:50.252Z,79.06
2023-01-13T00:41:32.120Z,79.05
2023-01-13T00:44:13.436Z,79.02
2023-01-13T00:46:55.319Z,79.00
2023-01-13T00:49:37.283Z,79.11
2023-01-13T00:52:19.276Z,79.04
2023-01-13T00:55:08.118Z,79.08
2023-01-13T00:57:42.656Z,79.17
2023-01-13T01:00:33.186Z,79.40
2023-01-13T01:03:19.306Z,79.33
2023-01-13T01:06:00.447Z,79.28
2023-01-13T01:08:43.140Z,79.11
2023-01-13T01:11:34.103Z,78.89
2023-01-13T01:14:17.130Z,78.68
2023-01-13T01:16:58.423Z,78.63
2023-01-13T01:19:44.316Z,78.82
2023-01-13T01:22:26.464Z,78.97
2023-01-13T01:25:24.098Z,78.99
2023-01-13T01:28:12.140Z,79.21
2023-01-13T01:30:55.161Z,80.00
2023-01-13T01:33:43.316Z,80.47
2023-01-13T01:36:27.114Z,80.72
2023-01-13T01:39:15.121Z,80.79
2023-01-13T01:42:08.861Z,80.52
2023-01-13T01:45:08.323Z,80.26
2023-01-13T01:47:50.102Z,79.99
2023-01-13T01:50:38.099Z,79.75
2023-01-13T01:53:17.233Z,79.61
2023-01-13T01:56:06.090Z,79.61
2023-01-13T01:58:58.108Z,79.51
2023-01-13T02:01:54.286Z,79.46
2023-01-13T02:04:47.124Z,79.49
2023-01-13T02:07:28.101Z,79.33
2023-01-13T02:10:26.158Z,79.02
2023-01-13T02:13:17.110Z,78.87
2023-01-13T02:16:15.276Z,78.91
2023-01-13T02:19:12.103Z,78.77
2023-01-13T02:22:21.091Z,78.72
2023-01-13T02:25:20.304Z,78.72
2023-01-13T02:28:35.289Z,78.71
2023-01-13T02:31:39.163Z,78.67
2023-01-13T02:34:33.097Z,78.69
2023-01-13T02:37:14.228Z,78.58
2023-01-13T02:40:05.095Z,78.40
2023-01-13T02:43:23.078Z,78.26
2023-01-13T02:46:05.690Z,78.28
2023-01-13T02:48:56.080Z,78.18
2023-01-13T02:51:31.207Z,78.14
2023-01-13T02:54:27.092Z,78.23
2023-01-13T02:57:02.226Z,78.19
2023-01-13T02:59:52.034Z,78.17
2023-01-13T03:02:26.711Z,78.25
2023-01-13T03:05:16.225Z,78.37
2023-01-13T03:08:16.169Z,78.51
2023-01-13T03:11:28.023Z,78.53
2023-01-13T03:14:11.730Z,78.57
2023-01-13T03:17:35.221Z,78.74
2023-01-13T03:20:19.203Z,78.98
2023-01-13T03:23:31.224Z,78.89
2023-01-13T03:26:22.394Z,78.89
2023-01-13T03:29:35.219Z,78.86
2023-01-13T03:32:24.144Z,78.81
2023-01-13T03:35:13.999Z,78.81
2023-01-13T03:38:00.336Z,78.90
2023-01-13T03:40:46.213Z,78.80
2023-01-13T03:44:10.006Z,78.97
2023-01-13T03:47:04.995Z,78.84
2023-01-13T03:50:07.153Z,78.86
2023-01-13T03:53:18.998Z,79.19
2023-01-13T03:56:05.158Z,79.52
2023-01-13T03:58:56.218Z,79.61
2023-01-13T04:01:44.138Z,79.68
2023-01-13T04:04:46.013Z,79.78
2023-01-13T04:07:56.203Z,79.63
2023-01-13T04:10:56.215Z,79.55
2023-01-13T04:13:34.341Z,79.66
2023-01-13T04:16:22.010Z,79.79
2023-01-13T04:19:04.212Z,79.67
2023-01-13T04:21:45.668Z,79.69
2023-01-13T04:24:34.986Z,79.81
2023-01-13T04:27:09.459Z,79.86
2023-01-13T04:30:14.605Z,79.72
2023-01-13T04:32:53.391Z,79.68
2023-01-13T04:35:41.000Z,79.63
2023-01-13T04:38:24.982Z,79.79
2023-01-13T04:41:06.145Z,79.77
2023-01-13T04:43:47.001Z,79.60
2023-01-13T04:46:28.144Z,79.48
2023-01-13T04:49:09.995Z,79.26
2023-01-13T04:51:58.021Z,79.08
2023-01-13T04:54:39.009Z,78.99
2023-01-13T04:57:27.003Z,78.93
2023-01-13T05:00:02.573Z,79.02
2023-01-13T05:02:50.194Z,79.04
2023-01-13T05:05:26.870Z,78.98
2023-01-13T05:08:16.012Z,78.84
2023-01-13T05:10:51.174Z,78.99
2023-01-13T05:13:57.213Z,78.88
2023-01-13T05:16:56.026Z,78.76
2023-01-13T05:19:41.103Z,78.83
2023-01-13T05:22:40.982Z,79.02
2023-01-13T05:25:23.384Z,79.13
2023-01-13T05:28:12.226Z,79.20
2023-01-13T05:30:51.305Z,79.28
2023-01-13T05:33:39.207Z,79.27
2023-01-13T05:36:14.124Z,79.19
2023-01-13T05:39:01.985Z,79.11
2023-01-13T05:41:55.708Z,79.10
2023-01-13T05:44:43.989Z,79.14
2023-01-13T05:47:25.922Z,79.21
2023-01-13T05:50:14.981Z,79.31
2023-01-13T05:52:50.171Z,79.35
2023-01-13T05:55:38.193Z,79.44
2023-01-13T05:58:17.137Z,79.32
2023-01-13T06:01:10.089Z,79.42
2023-01-13T06:03:51.213Z,79.59
2023-01-13T06:06:32.983Z,79.64
2023-01-13T06:09:20.989Z,79.50
2023-01-13T06:11:55.418Z,79.36
2023-01-13T06:14:48.992Z,79.23
2023-01-13T06:17:23.400Z,78.94
2023-01-13T06:20:11.083Z,78.72
2023-01-13T06:22:50.684Z,78.77
2023-01-13T06:25:51.000Z,78.97
2023-01-13T06:28:40.021Z,78.98
2023-01-13T06:31:15.156Z,79.06
2023-01-13T06:34:05.979Z,79.01
2023-01-13T06:36:47.175Z,78.88
2023-01-13T06:39:37.989Z,78.93
2023-01-13T06:42:31.586Z,78.78
2023-01-13T06:45:19.974Z,78.72
2023-01-13T06:47:57.235Z,78.62
2023-01-13T06:50:45.077Z,78.54
2023-01-13T06:53:20.123Z,78.52
2023-01-13T06:56:07.963Z,78.47
2023-01-13T06:58:42.112Z,78.46
2023-01-13T07:01:30.034Z,78.23
2023-01-13T07:04:05.245Z,78.16
2023-01-13T07:06:53.065Z,78.09
2023-01-13T07:09:34.972Z,78.03
2023-01-13T07:12:30.060Z,78.21
2023-01-13T07:15:27.017Z,78.42
2023-01-13T07:18:02.146Z,78.50
2023-01-13T07:20:49.963Z,78.34
2023-01-13T07:23:30.969Z,78.23
2023-01-13T07:26:26.061Z,78.24
2023-01-13T07:29:13.958Z,78.30
2023-01-13T07:31:49.994Z,78.40
2023-01-13T07:34:37.962Z,78.47
2023-01-13T07:37:20.096Z,78.40
2023-01-13T07:40:08.966Z,78.42
2023-01-13T07:43:03.927Z,78.31
2023-01-13T07:45:52.029Z,78.24
2023-01-13T07:48:27.146Z,78.25
2023-01-13T07:51:16.969Z,77.93
2023-01-13T07:53:58.980Z,77.81
2023-01-13T07:56:46.972Z,77.79
2023-01-13T07:59:22.101Z,77.91
2023-01-13T08:02:10.214Z,77.86
2023-01-13T08:04:51.918Z,77.81
2023-01-13T08:07:46.998Z,77.70
2023-01-13T08:10:35.050Z,77.55
2023-01-13T08:13:21.403Z,77.37
2023-01-13T08:16:13.065Z,77.05
2023-01-13T08:18:48.113Z,76.89
2023-01-13T08:21:36.058Z,76.55
2023-01-13T08:24:17.979Z,76.32
2023-01-13T08:27:12.961Z,76.03
2023-01-13T08:30:00.977Z,75.64
2023-01-13T08:32:36.221Z,75.41
2023-01-13T08:35:24.966Z,75.09
2023-01-13T08:38:00.278Z,74.79
2023-01-13T08:40:47.961Z,74.68
2023-01-13T08:43:29.063Z,74.65
2023-01-13T08:46:13.208Z,74.49
2023-01-13T08:48:54.148Z,74.31
2023-01-13T08:51:36.038Z,73.84
2023-01-13T08:54:24.983Z,73.58
2023-01-13T08:56:59.546Z,73.34
2023-01-13T08:59:48.083Z,72.93
2023-01-13T09:02:23.757Z,72.76
2023-01-13T09:05:16.189Z,72.64
2023-01-13T09:08:03.196Z,72.63
2023-01-13T09:10:45.324Z,72.11
2023-01-13T09:13:29.531Z,71.87
2023-01-13T09:16:11.170Z,71.51
2023-01-13T09:18:58.952Z,71.27
2023-01-13T09:21:41.047Z,71.01
2023-01-13T09:24:36.954Z,71.13
2023-01-13T09:27:24.951Z,70.73
2023-01-13T09:30:00.246Z,70.53
2023-01-13T09:32:47.949Z,70.33
2023-01-13T09:35:23.093Z,70.05
2023-01-13T09:38:11.069Z,69.48
2023-01-13T09:40:53.976Z,69.46
2023-01-13T09:44:00.101Z,69.48
2023-01-13T09:46:44.137Z,69.17
2023-01-13T09:49:37.949Z,68.54
2023-01-13T09:52:20.993Z,68.95
2023-01-13T09:55:31.980Z,69.10
2023-01-13T09:58:23.946Z,68.98
2023-01-13T10:01:07.122Z,68.75
2023-01-13T10:03:56.017Z,68.67
2023-01-13T10:06:45.950Z,68.30
2023-01-13T10:09:45.941Z,68.18
2023-01-13T10:12:57.008Z,68.19
2023-01-13T10:15:38.852Z,68.05
2023-01-13T10:18:34.977Z,68.01
2023-01-13T10:21:27.869Z,68.12
2023-01-13T10:24:40.936Z,67.94
2023-01-13T10:27:32.069Z,68.07
2023-01-13T10:30:40.077Z,67.97
2023-01-13T10:33:31.991Z,68.29
2023-01-13T10:36:19.943Z,68.27
2023-01-13T10:38:57.870Z,68.23
2023-01-13T10:41:45.979Z,68.30
2023-01-13T10:44:24.086Z,68.29
2023-01-13T10:47:26.975Z,68.04
2023-01-13T10:50:36.005Z,67.98
2023-01-13T10:53:31.001Z,67.87
2023-01-13T10:56:17.941Z,68.02
2023-01-13T10:59:33.961Z,68.07
2023-01-13T11:02:36.086Z,67.94
2023-01-13T11:05:37.940Z,68.12
2023-01-13T11:08:28.998Z,68.24
2023-01-13T11:11:12.944Z,68.28
2023-01-13T11:14:15.415Z,68.20
2023-01-13T11:17:06.947Z,68.32
2023-01-13T11:19:46.717Z,68.40
2023-01-13T11:22:41.019Z,68.17
2023-01-13T11:25:41.809Z,68.02
2023-01-13T11:28:57.959Z,67.74
2023-01-13T11:31:51.014Z,67.57
2023-01-13T11:34:48.011Z,67.29
2023-01-13T11:37:28.027Z,67.13
2023-01-13T11:40:27.969Z,67.11
2023-01-13T11:43:16.989Z,66.93
2023-01-13T11:46:02.137Z,66.51
2023-01-13T11:48:44.935Z,66.13
2023-01-13T11:51:42.941Z,65.79
2023-01-13T11:54:32.526Z,65.78
2023-01-13T11:57:31.942Z,65.50
2023-01-13T12:00:48.092Z,65.76
2023-01-13T12:03:37.992Z,66.12
2023-01-13T12:06:38.073Z,66.21
2023-01-13T12:09:35.957Z,66.34
2023-01-13T12:12:19.630Z,66.40
2023-01-13T12:15:36.947Z,66.47
2023-01-13T12:18:45.943Z,66.51
2023-01-13T12:21:37.905Z,66.22
2023-01-13T12:24:13.482Z,66.03
2023-01-13T12:27:12.986Z,65.93
2023-01-13T12:30:09.007Z,65.73
2023-01-13T12:32:57.928Z,65.75
2023-01-13T12:36:14.937Z,65.86
2023-01-13T12:39:12.958Z,65.90
2023-01-13T12:42:22.922Z,66.16
2023-01-13T12:45:27.920Z,66.30
2023-01-13T12:49:04.011Z,66.28
2023-01-13T12:51:57.937Z,66.57
2023-01-13T12:54:54.934Z,66.64
2023-01-13T12:57:50.965Z,66.51
2023-01-13T13:00:44.956Z,65.83
2023-01-13T13:03:26.931Z,65.48
2023-01-13T13:06:34.922Z,65.39
2023-01-13T13:10:28.014Z,65.41
2023-01-13T13:13:26.928Z,65.69
2023-01-13T13:16:26.796Z,65.80
2023-01-13T13:19:32.991Z,66.34
2023-01-13T13:22:23.950Z,66.36
2023-01-13T13:25:11.060Z,66.44
2023-01-13T13:28:04.985Z,66.20
2023-01-13T13:30:58.983Z,65.95
2023-01-13T13:33:52.943Z,66.18
2023-01-13T13:36:37.200Z,66.45
2023-01-13T13:39:47.963Z,66.48
2023-01-13T13:42:55.001Z,67.06
2023-01-13T13:45:56.087Z,67.24
2023-01-13T13:48:38.876Z,67.47
2023-01-13T13:51:40.099Z,67.74
2023-01-13T13:54:24.102Z,67.78
2023-01-13T13:57:05.927Z,67.68
2023-01-13T13:59:47.233Z,67.85
2023-01-13T14:02:38.935Z,68.26
2023-01-13T14:05:33.915Z,68.21
2023-01-13T14:08:24.979Z,68.09
2023-01-13T14:11:06.050Z,68.36
2023-01-13T14:13:46.919Z,68.42
2023-01-13T14:16:28.344Z,68.42
2023-01-13T14:19:09.882Z,68.51
2023-01-13T14:22:02.249Z,68.68
2023-01-13T14:24:57.206Z,68.71
2023-01-13T14:27:57.202Z,68.85
2023-01-13T14:30:52.135Z,68.98
2023-01-13T14:33:52.883Z,68.81
2023-01-13T14:36:31.231Z,68.95
2023-01-13T14:39:21.937Z,68.91
2023-01-13T14:42:04.262Z,68.96
2023-01-13T14:44:56.271Z,68.77
2023-01-13T14:47:42.854Z,69.38
2023-01-13T14:50:41.827Z,69.73
2023-01-13T14:53:53.854Z,69.72
2023-01-13T14:56:49.115Z,69.85
2023-01-13T14:59:58.970Z,70.01
2023-01-13T15:02:36.219Z,69.59
2023-01-13T15:05:26.852Z,69.84
2023-01-13T15:08:19.692Z,69.99
2023-01-13T15:11:19.838Z,70.20
2023-01-13T15:14:17.588Z,70.14
2023-01-13T15:16:58.971Z,70.17
2023-01-13T15:19:47.011Z,70.43
2023-01-13T15:22:29.715Z,70.55
2023-01-13T15:25:15.611Z,70.66
2023-01-13T15:27:58.826Z,70.84
2023-01-13T15:30:48.270Z,71.06
2023-01-13T15:33:24.806Z,71.33
2023-01-13T15:36:44.863Z,71.54
2023-01-13T15:39:39.825Z,71.81
2023-01-13T15:42:45.840Z,71.86
2023-01-13T15:45:45.952Z,71.79
2023-01-13T15:48:41.204Z,71.69
2023-01-13T15:51:24.211Z,71.52
2023-01-13T15:54:12.029Z,71.50
2023-01-13T15:57:00.085Z,71.36
2023-01-13T15:59:49.112Z,71.16
2023-01-13T16:02:31.584Z,71.22
2023-01-13T16:05:19.977Z,71.23
2023-01-13T16:07:54.975Z,70.96
2023-01-13T16:10:43.585Z,70.97
2023-01-13T16:13:19.976Z,71.13
2023-01-13T16:16:07.850Z,71.17
2023-01-13T16:18:49.842Z,71.34
2023-01-13T16:21:44.835Z,71.35
2023-01-13T16:24:32.871Z,71.54
2023-01-13T16:27:15.848Z,71.55
2023-01-13T16:30:03.863Z,71.40
2023-01-13T16:32:45.859Z,71.21
2023-01-13T16:35:29.052Z,71.05
2023-01-13T16:38:22.217Z,70.90
2023-01-13T16:40:57.399Z,70.85
2023-01-13T16:43:45.441Z,70.68
2023-01-13T16:46:27.882Z,70.59
2023-01-13T16:49:11.670Z,70.38
2023-01-13T16:51:52.891Z,70.41
2023-01-13T16:54:34.003Z,70.34
2023-01-13T16:57:19.885Z,70.47
2023-01-13T17:00:03.114Z,70.59
2023-01-13T17:02:47.873Z,70.62
2023-01-13T17:05:37.913Z,70.61
2023-01-13T17:08:18.218Z,70.95
2023-01-13T17:11:05.931Z,70.96
2023-01-13T17:14:00.898Z,70.92
2023-01-13T17:17:03.931Z,71.05
2023-01-13T17:19:39.042Z,71.12
2023-01-13T17:22:27.999Z,71.00
2023-01-13T17:25:03.117Z,70.99
2023-01-13T17:27:57.885Z,70.79
2023-01-13T17:30:46.123Z,70.85
2023-01-13T17:33:21.074Z,70.72
2023-01-13T17:36:09.077Z,70.62
2023-01-13T17:38:57.898Z,70.52
2023-01-13T17:41:32.411Z,70.42
2023-01-13T17:44:19.938Z,70.81
2023-01-13T17:47:01.177Z,70.94
2023-01-13T17:49:49.943Z,71.15
2023-01-13T17:52:31.894Z,71.09
2023-01-13T17:55:20.360Z,70.97
2023-01-13T17:58:02.453Z,70.95
2023-01-13T18:00:49.875Z,71.12
2023-01-13T18:03:24.450Z,71.19
2023-01-13T18:06:19.936Z,71.28
2023-01-13T18:08:54.761Z,71.29
2023-01-13T18:11:42.869Z,71.24
2023-01-13T18:14:18.680Z,71.41
2023-01-13T18:17:07.894Z,71.64
2023-01-13T18:20:07.872Z,71.28
2023-01-13T18:23:21.384Z,71.25
2023-01-13T18:26:14.447Z,71.45
2023-01-13T18:28:55.888Z,71.23
2023-01-13T18:31:38.283Z,71.20
2023-01-13T18:34:21.964Z,71.35
2023-01-13T18:37:03.031Z,71.48
2023-01-13T18:39:47.587Z,71.56
2023-01-13T18:42:48.153Z,71.64
2023-01-13T18:45:39.518Z,71.86
2023-01-13T18:48:22.343Z,72.00
2023-01-13T18:51:05.009Z,72.11
2023-01-13T18:53:50.089Z,71.94
2023-01-13T18:56:33.354Z,72.11
2023-01-13T18:59:15.364Z,72.04
2023-01-13T19:01:57.175Z,72.08
2023-01-13T19:04:47.003Z,72.12
2023-01-13T19:07:35.885Z,71.89
2023-01-13T19:10:24.893Z,71.89
2023-01-13T19:13:02.078Z,71.70
2023-01-13T19:15:53.095Z,71.84
2023-01-13T19:18:28.257Z,71.72
2023-01-13T19:21:18.297Z,71.61
2023-01-13T19:23:55.271Z,71.52
2023-01-13T19:26:44.066Z,71.68
2023-01-13T19:29:25.067Z,71.89
2023-01-13T19:32:06.758Z,71.66
2023-01-13T19:34:53.971Z,71.70
2023-01-13T19:37:48.099Z,71.57
2023-01-13T19:40:30.375Z,71.45
2023-01-13T19:43:32.115Z,71.24
2023-01-13T19:46:21.109Z,71.30
2023-01-13T19:49:05.591Z,71.74
2023-01-13T19:52:02.907Z,72.00
2023-01-13T19:54:52.869Z,72.03
2023-01-13T19:57:41.521Z,72.10
2023-01-13T20:00:36.913Z,72.62
2023-01-13T20:03:37.857Z,72.81
2023-01-13T20:06:26.169Z,73.05
2023-01-13T20:09:01.115Z,73.40
2023-01-13T20:11:48.920Z,74.17
2023-01-13T20:14:30.899Z,74.81
2023-01-13T20:17:30.782Z,75.37
2023-01-13T20:20:18.868Z,75.69
2023-01-13T20:22:54.196Z,75.69
2023-01-13T20:25:41.938Z,75.72
2023-01-13T20:28:20.306Z,76.01
2023-01-13T20:31:16.118Z,76.19
2023-01-13T20:33:58.126Z,76.46
2023-01-13T20:36:54.873Z,76.70
2023-01-13T20:39:42.867Z,76.84
2023-01-13T20:42:36.842Z,77.21
2023-01-13T20:45:33.881Z,77.27
2023-01-13T20:48:21.988Z,77.40
2023-01-13T20:51:07.879Z,77.94
2023-01-13T20:53:56.868Z,78.46
2023-01-13T20:56:38.869Z,78.98
2023-01-13T20:59:31.028Z,79.63
2023-01-13T21:02:08.695Z,80.09
2023-01-13T21:04:56.870Z,80.39
2023-01-13T21:07:38.877Z,81.38
2023-01-13T21:10:33.869Z,81.77
2023-01-13T21:13:40.936Z,82.32
2023-01-13T21:16:23.873Z,82.66
2023-01-13T21:19:14.945Z,82.77
2023-01-13T21:21:50.145Z,82.74
2023-01-13T21:24:37.871Z,82.66
2023-01-13T21:27:13.042Z,82.75
2023-01-13T21:30:00.948Z,82.86
2023-01-13T21:32:36.001Z,82.91
2023-01-13T21:35:23.906Z,82.63
2023-01-13T21:37:59.014Z,82.23
2023-01-13T21:40:46.840Z,82.48
2023-01-13T21:43:40.615Z,82.54
2023-01-13T21:46:48.889Z,82.72
2023-01-13T21:49:24.149Z,82.84
2023-01-13T21:52:12.842Z,82.88
2023-01-13T21:55:12.835Z,83.28
2023-01-13T21:58:01.913Z,83.55
2023-01-13T22:00:49.980Z,83.72
2023-01-13T22:03:25.256Z,84.13
2023-01-13T22:06:13.881Z,84.20
2023-01-13T22:08:55.083Z,84.26
2023-01-13T22:11:37.783Z,84.52
2023-01-13T22:14:20.835Z,84.73
2023-01-13T22:17:10.905Z,84.64
2023-01-13T22:19:51.885Z,84.42
2023-01-13T22:22:37.033Z,84.56
2023-01-13T22:25:19.850Z,84.26
2023-01-13T22:28:15.835Z,84.09
2023-01-13T22:31:03.900Z,83.95
2023-01-13T22:33:38.983Z,83.95
2023-01-13T22:36:27.955Z,83.85
2023-01-13T22:39:05.174Z,84.32
2023-01-13T22:41:54.629Z,84.32
2023-01-13T22:44:29.496Z,84.23
2023-01-13T22:47:19.159Z,84.31
2023-01-13T22:50:01.834Z,84.36
2023-01-13T22:52:44.602Z,83.99
2023-01-13T22:55:34.094Z,83.86
2023-01-13T22:58:08.496Z,84.10
2023-01-13T23:00:56.858Z,83.89
2023-01-13T23:03:31.328Z,83.65
2023-01-13T23:06:19.018Z,83.33
2023-01-13T23:08:54.196Z,83.15
2023-01-13T23:11:43.007Z,82.88
2023-01-13T23:14:17.945Z,82.52
2023-01-13T23:17:05.919Z,82.19
2023-01-13T23:19:46.911Z,81.88
2023-01-13T23:22:27.990Z,81.66
2023-01-13T23:25:08.856Z,81.40
2023-01-13T23:28:04.052Z,81.35
2023-01-13T23:30:51.881Z,81.14
2023-01-13T23:33:26.962Z,81.00
2023-01-13T23:36:17.836Z,80.85
2023-01-13T23:38:53.016Z,80.85
2023-01-13T23:41:40.834Z,80.90
2023-01-13T23:44:15.958Z,80.90
2023-01-13T23:47:04.039Z,80.87
2023-01-13T23:49:46.038Z,81.11
2023-01-13T23:52:33.876Z,81.41
2023-01-13T23:55:10.029Z,81.58
2023-01-13T23:57:57.829Z,81.75
